MET'MAP v2.0
soon released !

Expected late october,
this new version will be
more efficient, smarter,
and hosted on a brand new
server x3 powerfull...
...and still free !


Not compatible ?
Try the mobile version !

LOG IN : | Subscribe | Disclaimer | Who is Orbifly ? |
ICAO code :

TAF - ETIH Hohenfels Army Air Field - 08 Jul 2020 04:59 UTC
Data Sources :     NOAA   


- Airport Elevation : 1455 ft
- No reported NOTAMs.


ETIH - Hohenfels Army Air Field

Latest METAR recorded : 2015/08/11 07:58 ETIH 110758Z AUTO VRB03KT 9999 CLR 26/17 A3002 RMK AO2 SLP144
Expired Forecast.

Source NOAA


MET'MAP, your aeronautical weather chart ! - Copyright ORBIFLY December 2007

Programming & Development : Alexandra Zaïnal
Co-Developer : Marc-Olivier Méhu
Technical & hardware support : Manuel Goepfert
Concept & Financing : Baudouin d'Aumeries